sensor_id;sensor_type;location;lat;lon;timestamp;P1;durP1;ratioP1;P2;durP2;ratioP2
55655;SDS011;41530;52.382;5.270;2022-12-05T00:03:44;8.50;;;4.73;;
55655;SDS011;41530;52.382;5.270;2022-12-05T00:06:12;7.47;;;4.53;;
55655;SDS011;41530;52.382;5.270;2022-12-05T00:08:42;7.38;;;4.22;;
55655;SDS011;41530;52.382;5.270;2022-12-05T00:11:13;6.85;;;4.50;;
55655;SDS011;41530;52.382;5.270;2022-12-05T00:13:42;6.60;;;4.45;;
55655;SDS011;41530;52.382;5.270;2022-12-05T00:16:10;5.88;;;3.85;;
55655;SDS011;41530;52.382;5.270;2022-12-05T00:18:38;7.13;;;4.63;;
55655;SDS011;41530;52.382;5.270;2022-12-05T00:21:06;6.40;;;4.47;;
55655;SDS011;41530;52.382;5.270;2022-12-05T00:23:37;6.07;;;4.13;;
55655;SDS011;41530;52.382;5.270;2022-12-05T00:26:04;6.47;;;4.20;;
55655;SDS011;41530;52.382;5.270;2022-12-05T00:28:31;5.47;;;3.78;;
55655;SDS011;41530;52.382;5.270;2022-12-05T00:31:02;5.75;;;3.85;;
55655;SDS011;41530;52.382;5.270;2022-12-05T00:33:34;7.87;;;4.07;;
55655;SDS011;41530;52.382;5.270;2022-12-05T00:36:04;5.65;;;4.18;;
55655;SDS011;41530;52.382;5.270;2022-12-05T00:38:32;6.13;;;4.32;;
55655;SDS011;41530;52.382;5.270;2022-12-05T00:41:06;6.20;;;4.68;;
55655;SDS011;41530;52.382;5.270;2022-12-05T00:43:38;7.55;;;4.50;;
55655;SDS011;41530;52.382;5.270;2022-12-05T00:46:09;6.80;;;4.80;;
55655;SDS011;41530;52.382;5.270;2022-12-05T00:48:38;7.18;;;4.32;;
55655;SDS011;41530;52.382;5.270;2022-12-05T00:53:34;7.40;;;4.72;;
55655;SDS011;41530;52.382;5.270;2022-12-05T00:56:01;7.30;;;4.60;;
55655;SDS011;41530;52.382;5.270;2022-12-05T00:58:30;7.95;;;4.43;;
55655;SDS011;41530;52.382;5.270;2022-12-05T01:00:57;6.55;;;4.43;;
55655;SDS011;41530;52.382;5.270;2022-12-05T01:03:30;5.78;;;4.18;;
55655;SDS011;41530;52.382;5.270;2022-12-05T01:06:00;6.80;;;4.78;;
55655;SDS011;41530;52.382;5.270;2022-12-05T01:08:27;9.52;;;4.25;;
55655;SDS011;41530;52.382;5.270;2022-12-05T01:10:54;7.38;;;4.32;;
55655;SDS011;41530;52.382;5.270;2022-12-05T01:13:22;6.03;;;4.55;;
55655;SDS011;41530;52.382;5.270;2022-12-05T01:15:49;7.05;;;4.38;;
55655;SDS011;41530;52.382;5.270;2022-12-05T01:18:17;6.65;;;4.22;;
55655;SDS011;41530;52.382;5.270;2022-12-05T01:20:44;5.95;;;4.28;;
55655;SDS011;41530;52.382;5.270;2022-12-05T01:23:12;8.98;;;4.65;;
55655;SDS011;41530;52.382;5.270;2022-12-05T01:25:39;6.35;;;4.57;;
55655;SDS011;41530;52.382;5.270;2022-12-05T01:28:07;6.03;;;4.03;;
55655;SDS011;41530;52.382;5.270;2022-12-05T01:30:39;5.90;;;4.32;;
55655;SDS011;41530;52.382;5.270;2022-12-05T01:33:07;7.40;;;4.47;;
55655;SDS011;41530;52.382;5.270;2022-12-05T01:35:34;7.13;;;4.40;;
55655;SDS011;41530;52.382;5.270;2022-12-05T01:38:02;5.97;;;3.85;;
55655;SDS011;41530;52.382;5.270;2022-12-05T01:40:30;6.55;;;4.25;;
55655;SDS011;41530;52.382;5.270;2022-12-05T01:42:58;6.93;;;4.57;;
55655;SDS011;41530;52.382;5.270;2022-12-05T01:45:39;5.70;;;3.97;;
55655;SDS011;41530;52.382;5.270;2022-12-05T01:48:21;6.43;;;4.55;;
55655;SDS011;41530;52.382;5.270;2022-12-05T01:50:51;6.53;;;4.35;;
55655;SDS011;41530;52.382;5.270;2022-12-05T01:53:19;6.95;;;4.50;;
55655;SDS011;41530;52.382;5.270;2022-12-05T01:55:47;6.50;;;4.57;;
55655;SDS011;41530;52.382;5.270;2022-12-05T01:58:16;7.20;;;4.63;;
55655;SDS011;41530;52.382;5.270;2022-12-05T02:00:44;7.38;;;4.28;;
55655;SDS011;41530;52.382;5.270;2022-12-05T02:03:13;6.15;;;4.20;;
55655;SDS011;41530;52.382;5.270;2022-12-05T02:05:46;5.15;;;3.80;;
55655;SDS011;41530;52.382;5.270;2022-12-05T02:08:15;5.75;;;4.20;;
55655;SDS011;41530;52.382;5.270;2022-12-05T02:10:43;6.70;;;4.38;;
55655;SDS011;41530;52.382;5.270;2022-12-05T02:13:27;6.18;;;4.28;;
55655;SDS011;41530;52.382;5.270;2022-12-05T02:16:00;5.82;;;3.53;;
55655;SDS011;41530;52.382;5.270;2022-12-05T02:18:35;5.88;;;4.05;;
55655;SDS011;41530;52.382;5.270;2022-12-05T02:27:46;6.65;;;4.35;;
55655;SDS011;41530;52.382;5.270;2022-12-05T02:32:23;6.55;;;4.38;;
55655;SDS011;41530;52.382;5.270;2022-12-05T02:37:41;6.07;;;3.95;;
55655;SDS011;41530;52.382;5.270;2022-12-05T02:40:25;6.05;;;4.03;;
55655;SDS011;41530;52.382;5.270;2022-12-05T02:48:29;7.00;;;4.22;;
55655;SDS011;41530;52.382;5.270;2022-12-05T02:50:57;6.28;;;3.95;;
55655;SDS011;41530;52.382;5.270;2022-12-05T02:53:27;7.20;;;4.40;;
55655;SDS011;41530;52.382;5.270;2022-12-05T02:55:56;5.75;;;3.90;;
55655;SDS011;41530;52.382;5.270;2022-12-05T02:58:33;6.05;;;4.10;;
55655;SDS011;41530;52.382;5.270;2022-12-05T03:01:05;6.13;;;4.13;;
55655;SDS011;41530;52.382;5.270;2022-12-05T03:03:32;5.68;;;3.85;;
55655;SDS011;41530;52.382;5.270;2022-12-05T03:08:28;7.85;;;4.50;;
55655;SDS011;41530;52.382;5.270;2022-12-05T03:10:59;5.47;;;4.10;;
55655;SDS011;41530;52.382;5.270;2022-12-05T03:16:39;4.82;;;3.70;;
55655;SDS011;41530;52.382;5.270;2022-12-05T03:19:23;5.93;;;3.90;;
55655;SDS011;41530;52.382;5.270;2022-12-05T03:22:05;6.60;;;3.88;;
55655;SDS011;41530;52.382;5.270;2022-12-05T03:24:36;6.20;;;4.00;;
55655;SDS011;41530;52.382;5.270;2022-12-05T03:27:07;4.72;;;3.63;;
55655;SDS011;41530;52.382;5.270;2022-12-05T03:29:52;5.18;;;3.88;;
55655;SDS011;41530;52.382;5.270;2022-12-05T03:38:34;5.28;;;3.72;;
55655;SDS011;41530;52.382;5.270;2022-12-05T03:41:21;5.80;;;3.47;;
55655;SDS011;41530;52.382;5.270;2022-12-05T03:46:53;4.60;;;3.63;;
55655;SDS011;41530;52.382;5.270;2022-12-05T03:52:04;5.00;;;3.67;;
55655;SDS011;41530;52.382;5.270;2022-12-05T03:54:38;5.93;;;3.67;;
55655;SDS011;41530;52.382;5.270;2022-12-05T03:57:20;4.88;;;3.47;;
55655;SDS011;41530;52.382;5.270;2022-12-05T04:00:06;6.35;;;3.95;;
55655;SDS011;41530;52.382;5.270;2022-12-05T04:02:46;5.72;;;3.67;;
55655;SDS011;41530;52.382;5.270;2022-12-05T04:05:29;5.50;;;3.30;;
55655;SDS011;41530;52.382;5.270;2022-12-05T04:08:02;5.30;;;3.45;;
55655;SDS011;41530;52.382;5.270;2022-12-05T04:10:36;4.72;;;3.65;;
55655;SDS011;41530;52.382;5.270;2022-12-05T04:13:23;5.22;;;3.67;;
55655;SDS011;41530;52.382;5.270;2022-12-05T04:15:56;5.03;;;3.63;;
55655;SDS011;41530;52.382;5.270;2022-12-05T04:18:55;6.15;;;3.85;;
55655;SDS011;41530;52.382;5.270;2022-12-05T04:21:28;5.38;;;3.78;;
55655;SDS011;41530;52.382;5.270;2022-12-05T04:24:08;5.28;;;3.10;;
55655;SDS011;41530;52.382;5.270;2022-12-05T04:27:01;5.43;;;3.70;;
55655;SDS011;41530;52.382;5.270;2022-12-05T04:29:36;5.28;;;3.50;;
55655;SDS011;41530;52.382;5.270;2022-12-05T04:32:12;4.75;;;3.40;;
55655;SDS011;41530;52.382;5.270;2022-12-05T04:34:40;5.78;;;3.60;;
55655;SDS011;41530;52.382;5.270;2022-12-05T04:37:13;5.07;;;3.50;;
55655;SDS011;41530;52.382;5.270;2022-12-05T04:39:46;4.70;;;3.53;;
55655;SDS011;41530;52.382;5.270;2022-12-05T04:42:19;12.40;;;3.80;;
55655;SDS011;41530;52.382;5.270;2022-12-05T04:44:54;5.88;;;3.70;;
55655;SDS011;41530;52.382;5.270;2022-12-05T04:47:26;5.75;;;3.83;;
55655;SDS011;41530;52.382;5.270;2022-12-05T04:49:56;4.57;;;3.58;;
55655;SDS011;41530;52.382;5.270;2022-12-05T04:52:26;5.05;;;3.30;;
55655;SDS011;41530;52.382;5.270;2022-12-05T04:55:28;5.35;;;3.80;;
55655;SDS011;41530;52.382;5.270;2022-12-05T05:00:24;5.95;;;4.07;;
55655;SDS011;41530;52.382;5.270;2022-12-05T05:03:05;6.57;;;3.78;;
55655;SDS011;41530;52.382;5.270;2022-12-05T05:05:37;4.95;;;3.38;;
55655;SDS011;41530;52.382;5.270;2022-12-05T05:08:14;7.00;;;4.25;;
55655;SDS011;41530;52.382;5.270;2022-12-05T05:11:29;4.47;;;3.40;;
55655;SDS011;41530;52.382;5.270;2022-12-05T05:13:40;6.18;;;3.58;;
55655;SDS011;41530;52.382;5.270;2022-12-05T05:16:07;4.78;;;3.33;;
55655;SDS011;41530;52.382;5.270;2022-12-05T05:18:34;5.97;;;3.80;;
55655;SDS011;41530;52.382;5.270;2022-12-05T05:21:01;5.32;;;3.75;;
55655;SDS011;41530;52.382;5.270;2022-12-05T05:23:28;4.82;;;3.63;;
55655;SDS011;41530;52.382;5.270;2022-12-05T05:25:55;6.03;;;3.95;;
55655;SDS011;41530;52.382;5.270;2022-12-05T05:28:22;5.90;;;3.80;;
55655;SDS011;41530;52.382;5.270;2022-12-05T05:30:49;5.00;;;3.70;;
55655;SDS011;41530;52.382;5.270;2022-12-05T05:33:16;5.63;;;3.58;;
55655;SDS011;41530;52.382;5.270;2022-12-05T05:35:43;5.43;;;3.58;;
55655;SDS011;41530;52.382;5.270;2022-12-05T05:38:10;6.72;;;4.30;;
55655;SDS011;41530;52.382;5.270;2022-12-05T05:40:37;5.78;;;3.63;;
55655;SDS011;41530;52.382;5.270;2022-12-05T05:43:04;5.53;;;3.83;;
55655;SDS011;41530;52.382;5.270;2022-12-05T05:45:31;5.25;;;3.70;;
55655;SDS011;41530;52.382;5.270;2022-12-05T05:47:58;5.35;;;3.53;;
55655;SDS011;41530;52.382;5.270;2022-12-05T05:50:26;5.85;;;3.70;;
55655;SDS011;41530;52.382;5.270;2022-12-05T05:52:53;5.53;;;3.88;;
55655;SDS011;41530;52.382;5.270;2022-12-05T05:55:20;5.32;;;3.78;;
55655;SDS011;41530;52.382;5.270;2022-12-05T05:57:47;6.20;;;4.00;;
55655;SDS011;41530;52.382;5.270;2022-12-05T06:00:14;5.50;;;3.85;;
55655;SDS011;41530;52.382;5.270;2022-12-05T06:02:41;5.97;;;4.18;;
55655;SDS011;41530;52.382;5.270;2022-12-05T06:05:08;5.28;;;3.65;;
55655;SDS011;41530;52.382;5.270;2022-12-05T06:07:36;4.43;;;3.20;;
55655;SDS011;41530;52.382;5.270;2022-12-05T06:10:03;6.15;;;3.53;;
55655;SDS011;41530;52.382;5.270;2022-12-05T06:12:32;5.40;;;3.70;;
55655;SDS011;41530;52.382;5.270;2022-12-05T06:14:59;5.25;;;3.63;;
55655;SDS011;41530;52.382;5.270;2022-12-05T06:17:26;6.25;;;3.83;;
55655;SDS011;41530;52.382;5.270;2022-12-05T06:19:52;7.22;;;3.90;;
55655;SDS011;41530;52.382;5.270;2022-12-05T06:22:19;6.72;;;3.95;;
55655;SDS011;41530;52.382;5.270;2022-12-05T06:24:46;5.78;;;3.95;;
55655;SDS011;41530;52.382;5.270;2022-12-05T06:27:13;4.90;;;3.47;;
55655;SDS011;41530;52.382;5.270;2022-12-05T06:29:40;5.82;;;3.60;;
55655;SDS011;41530;52.382;5.270;2022-12-05T06:32:06;5.00;;;3.10;;
55655;SDS011;41530;52.382;5.270;2022-12-05T06:34:34;4.50;;;3.45;;
55655;SDS011;41530;52.382;5.270;2022-12-05T06:37:01;4.10;;;3.38;;
55655;SDS011;41530;52.382;5.270;2022-12-05T06:39:28;4.95;;;3.58;;
55655;SDS011;41530;52.382;5.270;2022-12-05T06:41:55;5.45;;;3.70;;
55655;SDS011;41530;52.382;5.270;2022-12-05T06:44:21;5.35;;;3.75;;
55655;SDS011;41530;52.382;5.270;2022-12-05T06:46:52;13.63;;;4.68;;
55655;SDS011;41530;52.382;5.270;2022-12-05T06:49:20;17.55;;;5.45;;
55655;SDS011;41530;52.382;5.270;2022-12-05T06:51:55;17.90;;;5.18;;
55655;SDS011;41530;52.382;5.270;2022-12-05T06:54:22;20.58;;;5.22;;
55655;SDS011;41530;52.382;5.270;2022-12-05T06:56:49;16.08;;;5.35;;
55655;SDS011;41530;52.382;5.270;2022-12-05T06:59:16;17.70;;;5.03;;
55655;SDS011;41530;52.382;5.270;2022-12-05T07:01:43;17.23;;;5.07;;
55655;SDS011;41530;52.382;5.270;2022-12-05T07:04:12;17.98;;;5.35;;
55655;SDS011;41530;52.382;5.270;2022-12-05T07:06:41;15.98;;;4.85;;
55655;SDS011;41530;52.382;5.270;2022-12-05T07:09:16;13.65;;;4.35;;
55655;SDS011;41530;52.382;5.270;2022-12-05T07:12:12;17.20;;;4.43;;
55655;SDS011;41530;52.382;5.270;2022-12-05T07:14:40;12.23;;;4.00;;
55655;SDS011;41530;52.382;5.270;2022-12-05T07:17:16;10.23;;;4.30;;
55655;SDS011;41530;52.382;5.270;2022-12-05T07:19:45;14.27;;;4.60;;
55655;SDS011;41530;52.382;5.270;2022-12-05T07:22:20;9.82;;;3.90;;
55655;SDS011;41530;52.382;5.270;2022-12-05T07:24:49;7.45;;;3.83;;
55655;SDS011;41530;52.382;5.270;2022-12-05T07:27:17;8.52;;;3.50;;
55655;SDS011;41530;52.382;5.270;2022-12-05T07:29:52;7.32;;;3.80;;
55655;SDS011;41530;52.382;5.270;2022-12-05T07:32:18;7.95;;;3.67;;
55655;SDS011;41530;52.382;5.270;2022-12-05T07:34:45;8.68;;;3.53;;
55655;SDS011;41530;52.382;5.270;2022-12-05T07:37:18;7.82;;;3.35;;
55655;SDS011;41530;52.382;5.270;2022-12-05T07:39:45;6.30;;;3.67;;
55655;SDS011;41530;52.382;5.270;2022-12-05T07:42:12;9.73;;;4.05;;
55655;SDS011;41530;52.382;5.270;2022-12-05T07:44:39;9.48;;;3.08;;
55655;SDS011;41530;52.382;5.270;2022-12-05T07:47:07;7.43;;;3.15;;
55655;SDS011;41530;52.382;5.270;2022-12-05T07:49:33;6.70;;;3.28;;
55655;SDS011;41530;52.382;5.270;2022-12-05T07:52:00;9.00;;;3.15;;
55655;SDS011;41530;52.382;5.270;2022-12-05T07:54:27;7.30;;;3.42;;
55655;SDS011;41530;52.382;5.270;2022-12-05T07:56:54;7.35;;;3.60;;
55655;SDS011;41530;52.382;5.270;2022-12-05T07:59:21;7.97;;;3.75;;
55655;SDS011;41530;52.382;5.270;2022-12-05T08:01:47;5.20;;;2.78;;
55655;SDS011;41530;52.382;5.270;2022-12-05T08:04:14;6.70;;;3.47;;
55655;SDS011;41530;52.382;5.270;2022-12-05T08:06:44;6.78;;;3.00;;
55655;SDS011;41530;52.382;5.270;2022-12-05T08:09:11;6.63;;;2.97;;
55655;SDS011;41530;52.382;5.270;2022-12-05T08:11:38;5.75;;;2.83;;
55655;SDS011;41530;52.382;5.270;2022-12-05T08:14:05;5.95;;;3.35;;
55655;SDS011;41530;52.382;5.270;2022-12-05T08:16:32;5.75;;;2.97;;
55655;SDS011;41530;52.382;5.270;2022-12-05T08:19:05;4.57;;;2.90;;
55655;SDS011;41530;52.382;5.270;2022-12-05T08:21:41;7.70;;;3.05;;
55655;SDS011;41530;52.382;5.270;2022-12-05T08:24:24;5.97;;;2.47;;
55655;SDS011;41530;52.382;5.270;2022-12-05T08:27:07;4.18;;;2.40;;
55655;SDS011;41530;52.382;5.270;2022-12-05T08:30:02;4.07;;;2.38;;
55655;SDS011;41530;52.382;5.270;2022-12-05T08:32:59;4.32;;;2.47;;
55655;SDS011;41530;52.382;5.270;2022-12-05T08:35:35;3.35;;;2.30;;
55655;SDS011;41530;52.382;5.270;2022-12-05T08:38:05;4.20;;;2.28;;
55655;SDS011;41530;52.382;5.270;2022-12-05T08:40:40;4.53;;;2.25;;
55655;SDS011;41530;52.382;5.270;2022-12-05T08:43:13;3.35;;;2.25;;
55655;SDS011;41530;52.382;5.270;2022-12-05T08:48:50;7.80;;;2.08;;
55655;SDS011;41530;52.382;5.270;2022-12-05T08:51:26;3.45;;;2.00;;
55655;SDS011;41530;52.382;5.270;2022-12-05T08:54:14;2.88;;;2.05;;
55655;SDS011;41530;52.382;5.270;2022-12-05T08:57:09;4.65;;;1.98;;
55655;SDS011;41530;52.382;5.270;2022-12-05T08:59:54;3.28;;;2.22;;
55655;SDS011;41530;52.382;5.270;2022-12-05T09:02:32;3.88;;;2.10;;
55655;SDS011;41530;52.382;5.270;2022-12-05T09:05:14;4.18;;;2.97;;
55655;SDS011;41530;52.382;5.270;2022-12-05T09:08:09;3.03;;;1.70;;
55655;SDS011;41530;52.382;5.270;2022-12-05T09:11:07;1.90;;;1.63;;
55655;SDS011;41530;52.382;5.270;2022-12-05T09:14:11;3.97;;;1.83;;
55655;SDS011;41530;52.382;5.270;2022-12-05T09:16:54;2.25;;;1.80;;
55655;SDS011;41530;52.382;5.270;2022-12-05T09:19:37;4.30;;;1.63;;
55655;SDS011;41530;52.382;5.270;2022-12-05T09:22:08;2.42;;;1.90;;
55655;SDS011;41530;52.382;5.270;2022-12-05T09:24:54;4.18;;;1.70;;
55655;SDS011;41530;52.382;5.270;2022-12-05T09:27:24;2.83;;;1.55;;
55655;SDS011;41530;52.382;5.270;2022-12-05T09:33:09;2.67;;;1.60;;
55655;SDS011;41530;52.382;5.270;2022-12-05T09:36:10;2.95;;;1.92;;
55655;SDS011;41530;52.382;5.270;2022-12-05T09:39:12;3.22;;;1.55;;
55655;SDS011;41530;52.382;5.270;2022-12-05T09:50:58;2.72;;;1.77;;
55655;SDS011;41530;52.382;5.270;2022-12-05T09:53:43;2.80;;;1.70;;
55655;SDS011;41530;52.382;5.270;2022-12-05T09:56:26;2.33;;;1.40;;
55655;SDS011;41530;52.382;5.270;2022-12-05T09:59:20;2.25;;;1.40;;
55655;SDS011;41530;52.382;5.270;2022-12-05T10:02:16;1.90;;;1.23;;
55655;SDS011;41530;52.382;5.270;2022-12-05T10:12:06;4.30;;;1.60;;
55655;SDS011;41530;52.382;5.270;2022-12-05T10:18:13;4.28;;;1.27;;
55655;SDS011;41530;52.382;5.270;2022-12-05T10:21:38;2.33;;;1.40;;
55655;SDS011;41530;52.382;5.270;2022-12-05T10:24:39;1.70;;;1.40;;
55655;SDS011;41530;52.382;5.270;2022-12-05T10:27:37;1.33;;;1.10;;
55655;SDS011;41530;52.382;5.270;2022-12-05T10:30:35;1.83;;;1.33;;
55655;SDS011;41530;52.382;5.270;2022-12-05T10:33:17;1.63;;;1.27;;
55655;SDS011;41530;52.382;5.270;2022-12-05T10:40:20;2.03;;;1.40;;
55655;SDS011;41530;52.382;5.270;2022-12-05T10:43:25;3.58;;;1.10;;
55655;SDS011;41530;52.382;5.270;2022-12-05T10:46:21;1.63;;;1.23;;
55655;SDS011;41530;52.382;5.270;2022-12-05T10:49:01;2.50;;;1.30;;
55655;SDS011;41530;52.382;5.270;2022-12-05T10:51:34;4.68;;;0.95;;
55655;SDS011;41530;52.382;5.270;2022-12-05T10:54:23;1.85;;;1.30;;
55655;SDS011;41530;52.382;5.270;2022-12-05T10:57:39;2.55;;;1.30;;
55655;SDS011;41530;52.382;5.270;2022-12-05T11:00:22;1.85;;;1.35;;
55655;SDS011;41530;52.382;5.270;2022-12-05T11:03:14;1.40;;;1.15;;
55655;SDS011;41530;52.382;5.270;2022-12-05T11:06:29;2.20;;;1.20;;
55655;SDS011;41530;52.382;5.270;2022-12-05T11:12:16;4.07;;;1.63;;
55655;SDS011;41530;52.382;5.270;2022-12-05T11:15:19;1.67;;;1.25;;
55655;SDS011;41530;52.382;5.270;2022-12-05T11:17:51;3.35;;;1.17;;
55655;SDS011;41530;52.382;5.270;2022-12-05T11:20:58;2.15;;;1.00;;
55655;SDS011;41530;52.382;5.270;2022-12-05T11:24:19;1.25;;;0.90;;
55655;SDS011;41530;52.382;5.270;2022-12-05T11:26:54;1.73;;;1.20;;
55655;SDS011;41530;52.382;5.270;2022-12-05T11:29:35;1.20;;;1.10;;
55655;SDS011;41530;52.382;5.270;2022-12-05T11:32:17;2.72;;;1.20;;
55655;SDS011;41530;52.382;5.270;2022-12-05T11:34:59;1.42;;;1.00;;
55655;SDS011;41530;52.382;5.270;2022-12-05T11:41:57;1.52;;;1.10;;
55655;SDS011;41530;52.382;5.270;2022-12-05T11:45:05;3.03;;;1.00;;
55655;SDS011;41530;52.382;5.270;2022-12-05T12:05:52;1.45;;;1.10;;
55655;SDS011;41530;52.382;5.270;2022-12-05T12:52:25;1.23;;;1.00;;
55655;SDS011;41530;52.382;5.270;2022-12-05T13:26:53;1.67;;;1.10;;
55655;SDS011;41530;52.382;5.270;2022-12-05T13:30:14;1.33;;;0.90;;
55655;SDS011;41530;52.382;5.270;2022-12-05T13:36:59;1.25;;;1.05;;
55655;SDS011;41530;52.382;5.270;2022-12-05T13:51:43;1.38;;;0.90;;
55655;SDS011;41530;52.382;5.270;2022-12-05T13:55:03;0.75;;;0.70;;
55655;SDS011;41530;52.382;5.270;2022-12-05T14:02:09;1.15;;;0.73;;
55655;SDS011;41530;52.382;5.270;2022-12-05T14:07:50;1.17;;;0.80;;
55655;SDS011;41530;52.382;5.270;2022-12-05T14:15:44;2.13;;;0.90;;
55655;SDS011;41530;52.382;5.270;2022-12-05T14:18:42;1.65;;;1.10;;
55655;SDS011;41530;52.382;5.270;2022-12-05T14:21:20;2.08;;;1.17;;
55655;SDS011;41530;52.382;5.270;2022-12-05T14:24:19;1.50;;;1.10;;
55655;SDS011;41530;52.382;5.270;2022-12-05T14:27:06;1.88;;;1.10;;
55655;SDS011;41530;52.382;5.270;2022-12-05T14:30:04;1.13;;;1.00;;
55655;SDS011;41530;52.382;5.270;2022-12-05T14:33:17;1.58;;;1.20;;
55655;SDS011;41530;52.382;5.270;2022-12-05T14:35:56;1.88;;;1.17;;
55655;SDS011;41530;52.382;5.270;2022-12-05T14:38:45;1.13;;;1.00;;
55655;SDS011;41530;52.382;5.270;2022-12-05T14:41:33;1.10;;;1.00;;
55655;SDS011;41530;52.382;5.270;2022-12-05T14:44:17;2.50;;;1.20;;
55655;SDS011;41530;52.382;5.270;2022-12-05T14:47:30;1.75;;;1.10;;
55655;SDS011;41530;52.382;5.270;2022-12-05T15:02:01;1.73;;;0.95;;
55655;SDS011;41530;52.382;5.270;2022-12-05T15:04:41;1.50;;;0.85;;
55655;SDS011;41530;52.382;5.270;2022-12-05T15:07:36;1.20;;;1.00;;
55655;SDS011;41530;52.382;5.270;2022-12-05T15:11:15;1.33;;;0.95;;
55655;SDS011;41530;52.382;5.270;2022-12-05T15:13:40;0.80;;;0.73;;
55655;SDS011;41530;52.382;5.270;2022-12-05T15:16:19;2.50;;;1.17;;
55655;SDS011;41530;52.382;5.270;2022-12-05T15:19:13;2.45;;;1.23;;
55655;SDS011;41530;52.382;5.270;2022-12-05T15:22:13;1.20;;;0.80;;
55655;SDS011;41530;52.382;5.270;2022-12-05T15:24:45;1.77;;;0.90;;
55655;SDS011;41530;52.382;5.270;2022-12-05T15:27:25;1.52;;;0.90;;
55655;SDS011;41530;52.382;5.270;2022-12-05T15:29:57;1.20;;;0.98;;
55655;SDS011;41530;52.382;5.270;2022-12-05T15:32:35;1.05;;;0.95;;
55655;SDS011;41530;52.382;5.270;2022-12-05T15:35:30;1.60;;;1.00;;
55655;SDS011;41530;52.382;5.270;2022-12-05T15:38:28;1.42;;;0.98;;
55655;SDS011;41530;52.382;5.270;2022-12-05T15:41:16;1.20;;;0.95;;
55655;SDS011;41530;52.382;5.270;2022-12-05T15:44:01;1.33;;;1.20;;
55655;SDS011;41530;52.382;5.270;2022-12-05T15:46:41;1.00;;;0.90;;
55655;SDS011;41530;52.382;5.270;2022-12-05T15:49:19;2.28;;;1.20;;
55655;SDS011;41530;52.382;5.270;2022-12-05T15:52:03;1.20;;;1.00;;
55655;SDS011;41530;52.382;5.270;2022-12-05T15:55:06;1.38;;;0.90;;
55655;SDS011;41530;52.382;5.270;2022-12-05T15:57:43;2.72;;;1.20;;
55655;SDS011;41530;52.382;5.270;2022-12-05T16:00:44;1.20;;;1.08;;
55655;SDS011;41530;52.382;5.270;2022-12-05T16:03:37;1.23;;;0.95;;
55655;SDS011;41530;52.382;5.270;2022-12-05T16:06:17;0.70;;;0.70;;
55655;SDS011;41530;52.382;5.270;2022-12-05T16:08:52;1.20;;;1.00;;
55655;SDS011;41530;52.382;5.270;2022-12-05T16:11:30;1.38;;;0.90;;
55655;SDS011;41530;52.382;5.270;2022-12-05T16:14:13;1.45;;;1.05;;
55655;SDS011;41530;52.382;5.270;2022-12-05T16:17:06;1.20;;;1.05;;
55655;SDS011;41530;52.382;5.270;2022-12-05T16:19:52;1.27;;;0.95;;
55655;SDS011;41530;52.382;5.270;2022-12-05T16:22:49;1.42;;;1.00;;
55655;SDS011;41530;52.382;5.270;2022-12-05T16:26:20;1.00;;;0.90;;
55655;SDS011;41530;52.382;5.270;2022-12-05T16:29:27;1.17;;;1.00;;
55655;SDS011;41530;52.382;5.270;2022-12-05T16:39:02;0.80;;;0.80;;
55655;SDS011;41530;52.382;5.270;2022-12-05T16:41:53;1.48;;;1.10;;
55655;SDS011;41530;52.382;5.270;2022-12-05T16:47:52;2.45;;;1.00;;
55655;SDS011;41530;52.382;5.270;2022-12-05T16:53:49;1.15;;;0.90;;
55655;SDS011;41530;52.382;5.270;2022-12-05T16:57:32;5.05;;;0.80;;
55655;SDS011;41530;52.382;5.270;2022-12-05T17:00:49;1.40;;;0.85;;
55655;SDS011;41530;52.382;5.270;2022-12-05T17:04:29;13.27;;;0.93;;
55655;SDS011;41530;52.382;5.270;2022-12-05T17:11:04;1.20;;;0.68;;
55655;SDS011;41530;52.382;5.270;2022-12-05T17:14:26;1.00;;;0.90;;
55655;SDS011;41530;52.382;5.270;2022-12-05T17:20:11;0.70;;;0.70;;
55655;SDS011;41530;52.382;5.270;2022-12-05T17:26:57;1.42;;;0.73;;
55655;SDS011;41530;52.382;5.270;2022-12-05T17:30:14;0.98;;;0.85;;
55655;SDS011;41530;52.382;5.270;2022-12-05T17:33:23;1.30;;;0.80;;
55655;SDS011;41530;52.382;5.270;2022-12-05T17:36:11;1.15;;;0.90;;
55655;SDS011;41530;52.382;5.270;2022-12-05T17:38:47;1.13;;;0.85;;
55655;SDS011;41530;52.382;5.270;2022-12-05T17:41:59;1.65;;;1.00;;
55655;SDS011;41530;52.382;5.270;2022-12-05T17:44:42;3.08;;;0.90;;
55655;SDS011;41530;52.382;5.270;2022-12-05T17:47:22;1.60;;;0.80;;
55655;SDS011;41530;52.382;5.270;2022-12-05T17:50:05;1.88;;;0.82;;
55655;SDS011;41530;52.382;5.270;2022-12-05T17:53:16;2.25;;;1.00;;
55655;SDS011;41530;52.382;5.270;2022-12-05T17:56:09;3.23;;;1.00;;
55655;SDS011;41530;52.382;5.270;2022-12-05T17:59:05;1.08;;;0.82;;
55655;SDS011;41530;52.382;5.270;2022-12-05T18:02:08;3.60;;;0.90;;
55655;SDS011;41530;52.382;5.270;2022-12-05T18:08:21;2.17;;;0.98;;
55655;SDS011;41530;52.382;5.270;2022-12-05T18:11:11;4.85;;;0.82;;
55655;SDS011;41530;52.382;5.270;2022-12-05T18:14:16;1.63;;;0.90;;
55655;SDS011;41530;52.382;5.270;2022-12-05T18:16:54;1.80;;;1.00;;
55655;SDS011;41530;52.382;5.270;2022-12-05T18:19:53;1.50;;;0.90;;
55655;SDS011;41530;52.382;5.270;2022-12-05T18:22:30;4.63;;;1.13;;
55655;SDS011;41530;52.382;5.270;2022-12-05T18:25:27;2.30;;;1.00;;
55655;SDS011;41530;52.382;5.270;2022-12-05T18:28:17;4.78;;;1.30;;
55655;SDS011;41530;52.382;5.270;2022-12-05T18:31:12;3.20;;;1.10;;
55655;SDS011;41530;52.382;5.270;2022-12-05T18:34:10;3.10;;;1.20;;
55655;SDS011;41530;52.382;5.270;2022-12-05T18:40:12;3.78;;;1.08;;
55655;SDS011;41530;52.382;5.270;2022-12-05T18:42:48;2.80;;;1.33;;
55655;SDS011;41530;52.382;5.270;2022-12-05T18:47:56;3.97;;;1.20;;
55655;SDS011;41530;52.382;5.270;2022-12-05T18:51:25;2.95;;;1.10;;
55655;SDS011;41530;52.382;5.270;2022-12-05T18:54:37;2.17;;;1.00;;
55655;SDS011;41530;52.382;5.270;2022-12-05T18:57:17;2.50;;;0.85;;
55655;SDS011;41530;52.382;5.270;2022-12-05T19:04:26;2.55;;;0.98;;
55655;SDS011;41530;52.382;5.270;2022-12-05T19:11:16;3.47;;;1.08;;
55655;SDS011;41530;52.382;5.270;2022-12-05T19:18:12;7.95;;;1.27;;
55655;SDS011;41530;52.382;5.270;2022-12-05T19:24:16;4.07;;;1.30;;
55655;SDS011;41530;52.382;5.270;2022-12-05T19:27:37;5.50;;;1.25;;
55655;SDS011;41530;52.382;5.270;2022-12-05T19:41:08;4.18;;;1.35;;
55655;SDS011;41530;52.382;5.270;2022-12-05T19:47:46;2.80;;;1.05;;
55655;SDS011;41530;52.382;5.270;2022-12-05T19:53:37;4.40;;;1.33;;
55655;SDS011;41530;52.382;5.270;2022-12-05T20:00:22;3.42;;;1.05;;
55655;SDS011;41530;52.382;5.270;2022-12-05T20:06:00;4.07;;;1.30;;
55655;SDS011;41530;52.382;5.270;2022-12-05T20:08:57;6.05;;;1.33;;
55655;SDS011;41530;52.382;5.270;2022-12-05T20:12:38;4.50;;;1.20;;
55655;SDS011;41530;52.382;5.270;2022-12-05T20:19:16;4.53;;;1.20;;
55655;SDS011;41530;52.382;5.270;2022-12-05T20:22:11;4.85;;;1.40;;
55655;SDS011;41530;52.382;5.270;2022-12-05T20:29:23;5.53;;;1.15;;
55655;SDS011;41530;52.382;5.270;2022-12-05T20:32:23;4.97;;;1.35;;
55655;SDS011;41530;52.382;5.270;2022-12-05T20:39:08;2.05;;;1.10;;
55655;SDS011;41530;52.382;5.270;2022-12-05T20:41:56;1.13;;;0.90;;
55655;SDS011;41530;52.382;5.270;2022-12-05T20:48:36;2.35;;;1.00;;
55655;SDS011;41530;52.382;5.270;2022-12-05T20:55:42;2.55;;;1.10;;
55655;SDS011;41530;52.382;5.270;2022-12-05T20:58:53;2.33;;;0.90;;
55655;SDS011;41530;52.382;5.270;2022-12-05T21:02:07;4.25;;;0.80;;
55655;SDS011;41530;52.382;5.270;2022-12-05T21:04:51;2.05;;;1.00;;
55655;SDS011;41530;52.382;5.270;2022-12-05T21:07:36;5.80;;;0.82;;
55655;SDS011;41530;52.382;5.270;2022-12-05T21:10:27;2.05;;;0.77;;
55655;SDS011;41530;52.382;5.270;2022-12-05T21:13:03;1.88;;;1.00;;
55655;SDS011;41530;52.382;5.270;2022-12-05T21:19:11;2.60;;;0.85;;
55655;SDS011;41530;52.382;5.270;2022-12-05T21:22:12;1.63;;;0.90;;